createdAt,value
2017-03-05T00:00:00.604Z,71.35
2017-03-05T00:00:26.197Z,71.45
2017-03-05T00:00:51.892Z,71.35
2017-03-05T05:00:25.196Z,71.7
2017-03-05T05:00:50.770Z,71.61
2017-03-05T05:01:16.375Z,71.61
2017-03-05T05:01:41.949Z,71.61
2017-03-05T05:02:07.519Z,71.61
2017-03-05T05:02:33.131Z,71.61
2017-03-05T05:02:58.794Z,71.61
2017-03-05T05:03:24.353Z,71.61
2017-03-05T05:03:49.957Z,71.61
2017-03-05T05:04:15.529Z,71.61
2017-03-05T05:04:41.092Z,71.8
2017-03-05T05:05:06.664Z,71.64
2017-03-05T05:05:32.224Z,71.61
2017-03-05T05:05:57.779Z,71.61
2017-03-05T05:06:23.390Z,71.61
2017-03-05T05:06:48.950Z,71.61
2017-03-05T05:07:14.519Z,71.64
2017-03-05T05:07:40.095Z,71.61
2017-03-05T05:08:05.719Z,71.61
2017-03-05T05:08:31.314Z,71.51
2017-03-05T05:08:57.861Z,71.61
2017-03-05T05:09:23.412Z,71.41
2017-03-05T05:09:48.980Z,71.61
2017-03-05T05:10:14.540Z,71.41
2017-03-05T05:10:40.101Z,71.51
2017-03-05T05:11:05.657Z,71.61
2017-03-05T05:11:31.253Z,71.61
2017-03-05T05:11:57.339Z,71.61
2017-03-05T05:12:22.967Z,71.61
2017-03-05T05:12:48.533Z,71.61
2017-03-05T05:13:14.114Z,71.41
2017-03-05T05:13:39.682Z,71.51
2017-03-05T05:14:05.240Z,71.61
2017-03-05T05:14:30.809Z,71.61
2017-03-05T05:14:56.382Z,71.45
2017-03-05T05:15:21.960Z,71.61
2017-03-05T05:15:47.521Z,71.51
2017-03-05T05:16:13.117Z,71.61
2017-03-05T05:16:38.682Z,71.64
2017-03-05T05:17:04.365Z,71.61
2017-03-05T05:17:29.952Z,71.55
2017-03-05T05:17:55.508Z,71.41
2017-03-05T05:18:21.074Z,71.41
2017-03-05T05:18:46.640Z,71.61
2017-03-05T05:19:12.490Z,71.51
2017-03-05T05:19:38.052Z,71.61
2017-03-05T05:20:03.608Z,71.61
2017-03-05T05:20:29.171Z,71.61
2017-03-05T05:20:54.748Z,71.51
2017-03-05T05:21:20.312Z,71.51
2017-03-05T05:21:45.870Z,71.64
2017-03-05T05:22:11.548Z,71.51
2017-03-05T05:22:37.127Z,71.51
2017-03-05T05:23:02.694Z,71.45
2017-03-05T05:23:28.254Z,71.51
2017-03-05T05:23:53.821Z,71.45
2017-03-05T05:24:19.398Z,71.51
2017-03-05T05:24:44.956Z,71.41
2017-03-05T05:25:10.523Z,71.35
2017-03-05T05:25:36.102Z,71.41
2017-03-05T05:26:01.650Z,71.31
2017-03-05T05:26:27.265Z,71.64
2017-03-05T05:26:52.919Z,71.51
2017-03-05T05:27:18.476Z,71.31
2017-03-05T05:27:44.031Z,71.35
2017-03-05T05:28:09.723Z,71.61
2017-03-05T05:28:35.301Z,71.61
2017-03-05T05:29:00.864Z,71.31
2017-03-05T05:29:26.437Z,71.64
2017-03-05T05:29:51.998Z,71.35
2017-03-05T05:30:17.559Z,71.35
2017-03-05T05:30:43.142Z,71.45
2017-03-05T05:31:08.700Z,71.41
2017-03-05T05:31:34.263Z,71.35
2017-03-05T05:31:59.836Z,71.31
2017-03-05T05:32:25.403Z,71.55
2017-03-05T05:32:50.951Z,71.61
2017-03-05T05:33:16.533Z,71.45
2017-03-05T05:33:42.092Z,71.41
2017-03-05T05:34:45.613Z,71.31
2017-03-05T05:35:11.173Z,71.25
2017-03-05T05:35:36.720Z,71.35
2017-03-05T05:36:02.281Z,71.31
2017-03-05T05:36:27.839Z,71.45
2017-03-05T05:36:53.400Z,71.55
2017-03-05T05:37:19.062Z,71.31
2017-03-05T05:37:44.648Z,71.35
2017-03-05T05:38:10.285Z,71.35
2017-03-05T05:38:35.838Z,71.35
2017-03-05T05:39:01.417Z,71.55
2017-03-05T05:39:26.915Z,71.45
2017-03-05T05:39:52.461Z,71.55
2017-03-05T05:40:18.001Z,71.55
2017-03-05T05:40:43.556Z,71.55
2017-03-05T05:41:09.116Z,71.31
2017-03-05T05:41:34.670Z,71.35
2017-03-05T05:42:00.229Z,71.25
2017-03-05T05:42:25.786Z,71.25
2017-03-05T05:42:51.405Z,71.64
2017-03-05T05:43:17.002Z,71.45
2017-03-05T05:43:42.566Z,71.41
2017-03-05T05:44:08.151Z,71.35
2017-03-05T05:44:33.712Z,71.45
2017-03-05T05:44:59.281Z,71.35
2017-03-05T05:45:24.841Z,71.25
2017-03-05T05:45:50.391Z,72.02
2017-03-05T05:46:15.937Z,71.41
2017-03-05T05:46:41.579Z,71.55
2017-03-05T05:47:07.161Z,71.55
2017-03-05T05:47:32.718Z,71.8
2017-03-05T05:47:58.362Z,71.55
2017-03-05T05:48:23.919Z,71.64
2017-03-05T05:48:49.489Z,71.7
2017-03-05T05:49:15.050Z,71.73
2017-03-05T05:49:41.445Z,71.64
2017-03-05T05:50:07.038Z,71.89
2017-03-05T05:50:32.593Z,71.64
2017-03-05T05:50:58.948Z,71.64
2017-03-05T05:51:23.721Z,71.64
2017-03-05T05:51:49.292Z,71.64
2017-03-05T05:52:14.864Z,71.51
2017-03-05T05:52:40.420Z,71.61
2017-03-05T05:53:05.980Z,71.64
2017-03-05T05:53:31.560Z,71.64
2017-03-05T05:53:57.116Z,71.73
2017-03-05T05:54:22.671Z,71.89
2017-03-05T05:54:48.231Z,71.89
2017-03-05T05:55:13.792Z,71.83
2017-03-05T05:55:39.440Z,71.55
2017-03-05T05:56:05.827Z,71.55
2017-03-05T05:56:31.389Z,71.83
2017-03-05T05:56:56.949Z,71.93
2017-03-05T05:57:22.514Z,71.93
2017-03-05T05:57:48.080Z,71.64
2017-03-05T05:58:14.450Z,71.93
2017-03-05T05:58:39.208Z,71.89
2017-03-05T05:59:04.781Z,72.02
2017-03-05T05:59:30.346Z,72.08
2017-03-05T05:59:55.992Z,71.89
2017-03-05T06:00:21.553Z,71.93
2017-03-05T06:00:47.109Z,71.93
2017-03-05T06:01:12.719Z,71.93
2017-03-05T06:01:38.951Z,72.02
2017-03-05T06:02:03.831Z,71.93
2017-03-05T06:02:29.413Z,72.02
2017-03-05T06:02:54.976Z,72.08
2017-03-05T06:03:20.592Z,72.12
2017-03-05T06:03:46.161Z,71.83
2017-03-05T06:04:11.719Z,71.98
2017-03-05T06:04:37.292Z,72.02
2017-03-05T06:05:02.850Z,72.02
2017-03-05T06:05:28.411Z,71.83
2017-03-05T06:05:53.991Z,71.98
2017-03-05T06:06:19.548Z,72.02
2017-03-05T06:06:45.122Z,71.93
2017-03-05T06:07:10.677Z,71.93
2017-03-05T06:07:36.246Z,71.89
2017-03-05T06:08:01.799Z,71.98
2017-03-05T06:08:27.350Z,72.02
2017-03-05T06:08:52.885Z,71.83
2017-03-05T06:09:18.435Z,71.83
2017-03-05T06:09:43.978Z,71.83
2017-03-05T06:10:09.528Z,71.83
2017-03-05T06:10:35.082Z,71.73
2017-03-05T06:11:00.631Z,72.12
2017-03-05T06:11:26.304Z,71.7
2017-03-05T06:11:51.881Z,72.12
2017-03-05T06:12:17.459Z,71.93
2017-03-05T06:12:43.040Z,71.73
2017-03-05T06:13:08.608Z,71.89
2017-03-05T06:13:34.170Z,71.73
2017-03-05T06:13:59.740Z,72.12
2017-03-05T06:14:25.394Z,71.73
2017-03-05T06:14:50.992Z,71.7
2017-03-05T06:15:16.550Z,71.83
2017-03-05T06:15:42.096Z,71.8
2017-03-05T06:16:07.648Z,71.93
2017-03-05T06:16:33.223Z,71.93
2017-03-05T06:16:58.778Z,72.31
2017-03-05T06:17:24.345Z,72.31
2017-03-05T06:17:49.907Z,72.31
2017-03-05T06:18:15.482Z,72.31
2017-03-05T06:18:41.189Z,72.41
2017-03-05T06:19:06.761Z,72.31
2017-03-05T06:19:32.428Z,72.41
2017-03-05T06:19:57.999Z,72.31
2017-03-05T06:20:23.554Z,72.37
2017-03-05T06:20:49.137Z,72.12
2017-03-05T06:21:14.702Z,72.18
2017-03-05T06:21:40.293Z,72.28
2017-03-05T06:22:05.852Z,71.98
2017-03-05T06:22:31.420Z,72.31
2017-03-05T06:22:57.002Z,72.28
2017-03-05T06:23:22.598Z,72.08
2017-03-05T06:23:48.162Z,72.12
2017-03-05T06:24:14.284Z,72.31
2017-03-05T06:24:39.878Z,72.22
2017-03-05T06:25:06.226Z,72.22
2017-03-05T06:25:31.798Z,72.22
2017-03-05T06:25:57.351Z,72.12
2017-03-05T06:26:22.947Z,72.18
2017-03-05T06:26:48.500Z,72.22
2017-03-05T06:27:14.112Z,72.18
2017-03-05T06:27:39.717Z,72.18
2017-03-05T06:28:05.305Z,72.18
2017-03-05T06:28:30.891Z,71.8
2017-03-05T06:28:56.474Z,72.08
2017-03-05T06:29:22.039Z,72.12
2017-03-05T06:29:47.629Z,71.98
2017-03-05T06:30:13.272Z,72.37
2017-03-05T06:30:38.886Z,71.93
2017-03-05T06:31:04.438Z,71.93
2017-03-05T06:31:29.981Z,71.89
2017-03-05T06:31:55.564Z,72.02
2017-03-05T06:32:21.122Z,72.41
2017-03-05T06:32:46.782Z,71.98
2017-03-05T06:33:12.348Z,72.12
2017-03-05T06:33:37.906Z,72.12
2017-03-05T06:34:03.561Z,72.02
2017-03-05T06:34:29.154Z,72.12
2017-03-05T06:34:54.725Z,72.5
2017-03-05T06:35:20.329Z,71.98
2017-03-05T06:35:45.891Z,72.31
2017-03-05T06:36:11.431Z,72.5
2017-03-05T06:36:36.979Z,72.08
2017-03-05T06:37:02.526Z,72.08
2017-03-05T06:37:28.081Z,71.93
2017-03-05T06:37:53.610Z,72.12
2017-03-05T06:38:19.198Z,72.12
2017-03-05T06:38:44.760Z,72.08
2017-03-05T06:39:10.328Z,72.08
2017-03-05T06:39:35.884Z,72.56
2017-03-05T06:40:01.453Z,72.69
2017-03-05T06:40:27.021Z,72.69
2017-03-05T06:40:53.121Z,72.66
2017-03-05T06:41:18.703Z,72.37
2017-03-05T06:41:44.412Z,72.66
2017-03-05T06:42:09.978Z,72.69
2017-03-05T06:42:35.588Z,72.75
2017-03-05T06:43:01.129Z,72.69
2017-03-05T06:43:26.709Z,72.79
2017-03-05T06:43:53.262Z,72.79
2017-03-05T06:44:18.841Z,72.22
2017-03-05T06:44:44.412Z,72.31
2017-03-05T06:45:09.979Z,72.28
2017-03-05T06:45:35.560Z,72.18
2017-03-05T06:46:01.163Z,72.41
2017-03-05T06:46:26.715Z,72.6
2017-03-05T06:46:52.268Z,72.41
2017-03-05T06:47:17.799Z,72.41
2017-03-05T06:47:43.371Z,72.37
2017-03-05T06:48:09.474Z,72.56
2017-03-05T06:48:35.048Z,72.47
2017-03-05T06:49:00.637Z,72.6
2017-03-05T06:49:26.207Z,72.31
2017-03-05T06:49:52.482Z,72.47
2017-03-05T06:50:17.469Z,72.6
2017-03-05T06:50:43.030Z,72.56
2017-03-05T06:51:08.701Z,72.6
2017-03-05T06:51:34.293Z,72.5
2017-03-05T06:51:59.868Z,72.37
2017-03-05T06:52:25.440Z,72.41
2017-03-05T06:52:50.978Z,72.6
2017-03-05T06:53:16.613Z,72.31
2017-03-05T06:53:42.146Z,72.31
2017-03-05T06:54:07.679Z,72.6
2017-03-05T06:54:33.218Z,72.41
2017-03-05T06:54:58.780Z,72.6
2017-03-05T06:55:24.322Z,72.37
2017-03-05T06:55:49.859Z,72.5
2017-03-05T06:56:15.439Z,72.41
2017-03-05T06:56:40.982Z,72.37
2017-03-05T06:57:06.555Z,72.31
2017-03-05T06:57:32.980Z,72.56
2017-03-05T06:57:57.915Z,72.5
2017-03-05T06:58:23.493Z,72.47
2017-03-05T06:58:49.071Z,72.5
2017-03-05T06:59:14.628Z,72.08
2017-03-05T06:59:40.214Z,72.31
2017-03-05T07:00:05.796Z,72.5
2017-03-05T07:00:59.207Z,72.47
2017-03-05T07:01:24.790Z,72.12
2017-03-05T07:01:50.351Z,72.37
2017-03-05T07:02:15.906Z,72.28
2017-03-05T07:02:41.491Z,72.41
2017-03-05T07:03:07.032Z,72.31
2017-03-05T07:03:32.591Z,72.02
2017-03-05T07:03:58.215Z,72.08
2017-03-05T07:04:23.730Z,72.28
2017-03-05T07:04:49.299Z,72.02
2017-03-05T07:05:14.879Z,72.18
2017-03-05T07:05:40.429Z,72.41
2017-03-05T07:06:05.957Z,72.08
2017-03-05T07:06:31.537Z,72.22
2017-03-05T07:06:57.124Z,72.31
2017-03-05T07:07:22.714Z,72.18
2017-03-05T07:07:48.239Z,72.22
2017-03-05T07:08:13.920Z,72.28
2017-03-05T07:08:39.471Z,72.18
2017-03-05T07:09:05.157Z,72.31
2017-03-05T07:09:30.708Z,72.41
2017-03-05T07:09:56.392Z,72.31
2017-03-05T07:10:21.936Z,72.5
2017-03-05T07:10:47.483Z,72.37
2017-03-05T07:11:13.013Z,72.31
2017-03-05T07:11:38.559Z,72.37
2017-03-05T07:12:04.262Z,72.31
2017-03-05T07:12:29.840Z,72.37
2017-03-05T07:12:55.403Z,72.22
2017-03-05T07:13:20.982Z,72.37
2017-03-05T07:13:46.538Z,72.31
2017-03-05T07:14:12.111Z,72.41
2017-03-05T07:14:37.686Z,72.22
2017-03-05T07:15:03.242Z,72.18
2017-03-05T07:15:28.953Z,72.18
2017-03-05T07:15:54.493Z,72.28
2017-03-05T07:16:20.142Z,72.22
2017-03-05T07:16:45.743Z,72.31
2017-03-05T07:17:11.324Z,72.85
2017-03-05T07:17:36.870Z,72.85
2017-03-05T07:18:02.445Z,72.41
2017-03-05T07:18:28.010Z,72.89
2017-03-05T07:18:54.359Z,72.08
2017-03-05T07:19:19.916Z,72.89
2017-03-05T07:19:45.481Z,72.22
2017-03-05T07:20:11.053Z,72.31
2017-03-05T07:20:36.671Z,72.99
2017-03-05T07:21:02.211Z,72.79
2017-03-05T07:21:27.764Z,72.89
2017-03-05T07:21:53.447Z,72.99
2017-03-05T07:22:19.009Z,72.95
2017-03-05T07:22:44.562Z,72.99
2017-03-05T07:23:11.080Z,72.99
2017-03-05T07:23:36.651Z,72.75
2017-03-05T07:24:02.208Z,72.66
2017-03-05T07:24:27.766Z,72.89
2017-03-05T07:24:53.359Z,72.69
2017-03-05T07:25:19.022Z,72.66
2017-03-05T07:25:44.597Z,73.08
2017-03-05T07:26:10.162Z,72.99
2017-03-05T07:26:35.745Z,72.66
2017-03-05T07:27:01.344Z,72.79
2017-03-05T07:27:26.932Z,72.66
2017-03-05T07:27:53.039Z,72.95
2017-03-05T07:28:18.632Z,72.69
2017-03-05T07:28:44.197Z,72.79
2017-03-05T07:29:09.778Z,72.75
2017-03-05T07:29:35.334Z,72.89
2017-03-05T07:30:00.888Z,72.75
2017-03-05T07:30:26.460Z,72.79
2017-03-05T07:30:52.035Z,72.79
2017-03-05T07:31:17.618Z,72.89
2017-03-05T07:31:43.186Z,72.79
2017-03-05T07:32:08.745Z,72.66
2017-03-05T07:32:34.359Z,72.79
2017-03-05T07:32:59.936Z,72.75
2017-03-05T07:33:25.496Z,72.79
2017-03-05T07:33:51.084Z,72.79
2017-03-05T07:34:16.654Z,72.89
2017-03-05T07:34:42.218Z,72.79
2017-03-05T07:35:07.798Z,72.5
2017-03-05T07:35:33.419Z,72.69
2017-03-05T07:35:58.978Z,72.6
2017-03-05T07:36:24.537Z,72.6
2017-03-05T07:36:50.103Z,72.6
2017-03-05T07:37:16.398Z,72.6
2017-03-05T07:37:41.995Z,72.69
2017-03-05T07:38:07.615Z,72.69
2017-03-05T07:38:33.160Z,72.6
2017-03-05T07:38:58.779Z,72.5
2017-03-05T07:39:24.359Z,72.5
2017-03-05T07:39:49.920Z,72.56
2017-03-05T07:40:15.490Z,72.66
2017-03-05T07:40:41.070Z,72.89
2017-03-05T07:41:06.771Z,72.69
2017-03-05T07:41:32.361Z,72.95
2017-03-05T07:41:57.922Z,72.66
2017-03-05T07:42:23.488Z,72.89
2017-03-05T07:42:49.051Z,72.56
2017-03-05T07:43:15.400Z,72.6
2017-03-05T07:43:40.191Z,72.99
2017-03-05T07:44:05.748Z,73.24
2017-03-05T07:44:31.327Z,72.66
2017-03-05T07:44:56.883Z,72.6
2017-03-05T07:45:22.451Z,72.69
2017-03-05T07:45:48.031Z,72.99
2017-03-05T07:46:13.603Z,72.89
2017-03-05T07:46:39.163Z,73.08
2017-03-05T07:47:04.714Z,72.6
2017-03-05T07:47:30.303Z,72.6
2017-03-05T07:47:55.867Z,73.08
2017-03-05T07:48:21.430Z,72.79
2017-03-05T07:48:46.999Z,73.08
2017-03-05T07:49:12.638Z,72.85
2017-03-05T07:49:38.201Z,72.85
2017-03-05T07:50:03.872Z,73.04
2017-03-05T07:50:29.481Z,72.85
2017-03-05T07:50:55.068Z,73.08
2017-03-05T07:51:20.617Z,73.18
2017-03-05T07:51:46.186Z,73.08
2017-03-05T07:52:11.881Z,73.33
2017-03-05T07:52:37.471Z,73.24
2017-03-05T07:53:03.022Z,73.27
2017-03-05T07:53:28.570Z,73.18
2017-03-05T07:53:54.971Z,73.04
2017-03-05T07:54:20.533Z,73.14
2017-03-05T07:54:46.129Z,72.75
2017-03-05T07:55:11.763Z,72.69
2017-03-05T07:55:37.327Z,73.14
2017-03-05T07:56:02.891Z,72.89
2017-03-05T07:56:28.687Z,72.95
2017-03-05T07:56:54.241Z,73.18
2017-03-05T07:57:19.809Z,72.79
2017-03-05T07:57:45.393Z,72.99
2017-03-05T07:58:10.960Z,72.75
2017-03-05T07:58:37.408Z,72.99
2017-03-05T07:59:02.072Z,72.6
2017-03-05T07:59:27.638Z,72.79
2017-03-05T07:59:53.201Z,72.69
2017-03-05T08:00:18.816Z,72.69
2017-03-05T08:00:44.423Z,72.79
2017-03-05T08:01:10.003Z,72.69
2017-03-05T08:01:35.597Z,72.6
2017-03-05T08:02:01.185Z,72.95
2017-03-05T08:02:26.756Z,72.99
2017-03-05T08:02:52.311Z,72.89
2017-03-05T08:03:17.868Z,72.79
2017-03-05T08:03:43.444Z,73.27
2017-03-05T08:04:09.001Z,73.04
2017-03-05T08:04:34.580Z,73.27
2017-03-05T08:05:00.141Z,73.08
2017-03-05T08:05:25.806Z,73.33
2017-03-05T08:05:51.612Z,73.24
2017-03-05T08:06:17.552Z,73.24
2017-03-05T08:06:43.118Z,72.89
2017-03-05T08:07:09.189Z,72.95
2017-03-05T08:07:35.412Z,73.04
2017-03-05T08:08:00.350Z,72.99
2017-03-05T08:08:25.917Z,72.95
2017-03-05T08:08:51.470Z,73.04
2017-03-05T08:09:17.018Z,73.33
2017-03-05T08:09:42.588Z,73.18
2017-03-05T08:10:09.917Z,73.18
2017-03-05T08:10:34.645Z,73.14
2017-03-05T08:11:00.206Z,73.14
2017-03-05T08:11:25.780Z,73.18
2017-03-05T08:11:51.365Z,73.04
2017-03-05T08:12:16.931Z,73.08
2017-03-05T08:12:42.506Z,73.18
2017-03-05T08:13:08.102Z,73.18
2017-03-05T08:13:34.416Z,73.18
2017-03-05T08:13:59.240Z,73.18
2017-03-05T08:14:24.831Z,73.04
2017-03-05T08:14:50.380Z,73.08
2017-03-05T08:15:15.930Z,73.08
2017-03-05T08:15:41.505Z,73.18
2017-03-05T08:16:07.124Z,73.08
2017-03-05T08:16:32.694Z,72.99
2017-03-05T08:16:58.258Z,73.27
2017-03-05T08:17:23.828Z,73.14
2017-03-05T08:17:49.489Z,72.85
2017-03-05T08:18:15.099Z,72.89
2017-03-05T08:18:40.673Z,72.99
2017-03-05T08:19:06.999Z,72.99
2017-03-05T08:19:33.452Z,72.6
2017-03-05T08:19:59.009Z,72.6
2017-03-05T08:20:25.257Z,72.6
2017-03-05T08:20:50.815Z,72.69
2017-03-05T08:21:16.379Z,72.79
2017-03-05T08:21:41.960Z,72.6
2017-03-05T08:22:07.508Z,72.79
2017-03-05T08:22:33.070Z,72.89
2017-03-05T08:22:59.417Z,72.69
2017-03-05T08:23:24.203Z,72.69
2017-03-05T08:23:49.793Z,72.79
2017-03-05T08:24:48.267Z,72.41
2017-03-05T08:25:13.884Z,72.41
2017-03-05T08:25:39.568Z,72.89
2017-03-05T08:26:05.161Z,72.22
2017-03-05T08:26:30.702Z,72.12
2017-03-05T08:26:56.380Z,72.31
2017-03-05T08:27:21.942Z,72.12
2017-03-05T08:27:47.503Z,72.22
2017-03-05T08:28:13.106Z,72.12
2017-03-05T08:28:38.718Z,72.37
2017-03-05T08:29:04.382Z,72.5
2017-03-05T08:29:29.940Z,72.6
2017-03-05T08:29:55.501Z,72.31
2017-03-05T08:30:21.181Z,72.41
2017-03-05T08:30:46.637Z,72.79
2017-03-05T08:31:12.203Z,72.37
2017-03-05T08:31:37.753Z,72.69
2017-03-05T08:32:03.335Z,72.69
2017-03-05T08:32:28.968Z,72.79
2017-03-05T08:32:54.822Z,72.12
2017-03-05T08:33:21.363Z,72.02
2017-03-05T08:33:46.915Z,71.93
2017-03-05T08:34:12.488Z,71.83
2017-03-05T08:34:38.046Z,72.08
2017-03-05T08:35:03.733Z,72.31
2017-03-05T08:35:29.347Z,72.12
2017-03-05T08:35:54.920Z,72.12
2017-03-05T08:36:20.559Z,72.22
2017-03-05T08:36:46.162Z,72.12
2017-03-05T08:37:11.708Z,72.31
2017-03-05T08:37:37.376Z,72.12
2017-03-05T08:38:02.933Z,72.41
2017-03-05T08:38:28.501Z,72.31
2017-03-05T08:38:54.103Z,72.41
2017-03-05T08:39:19.663Z,72.31
2017-03-05T08:39:45.209Z,72.31
2017-03-05T08:40:10.780Z,72.41
2017-03-05T08:40:36.384Z,72.41
2017-03-05T08:41:01.961Z,72.31
2017-03-05T08:41:27.583Z,72.41
2017-03-05T08:41:53.137Z,72.02
2017-03-05T08:42:18.712Z,72.08
2017-03-05T08:42:44.296Z,71.89
2017-03-05T08:43:09.886Z,72.08
2017-03-05T08:43:35.467Z,71.73
2017-03-05T08:44:01.033Z,71.8
2017-03-05T08:44:26.597Z,72.12
2017-03-05T08:44:52.175Z,72.12
2017-03-05T08:45:17.718Z,72.12
2017-03-05T08:45:43.284Z,72.08
2017-03-05T08:46:08.842Z,72.12
2017-03-05T08:46:34.439Z,71.93
2017-03-05T08:47:00.067Z,72.02
2017-03-05T08:47:25.641Z,71.93
2017-03-05T08:47:51.212Z,72.02
2017-03-05T08:48:16.798Z,72.08
2017-03-05T08:48:42.380Z,72.18
2017-03-05T08:49:07.939Z,71.89
2017-03-05T08:49:34.077Z,71.93
2017-03-05T08:49:59.048Z,72.12
2017-03-05T08:50:24.705Z,71.93
2017-03-05T08:50:50.284Z,71.93
2017-03-05T08:51:15.839Z,71.83
2017-03-05T08:51:41.483Z,71.8
2017-03-05T08:52:07.084Z,71.7
2017-03-05T08:52:32.643Z,71.8
2017-03-05T08:52:58.195Z,71.8
2017-03-05T08:53:23.875Z,71.93
2017-03-05T08:53:49.428Z,71.8
2017-03-05T08:54:15.243Z,71.98
2017-03-05T08:54:40.818Z,72.08
2017-03-05T08:55:06.382Z,72.02
2017-03-05T08:55:31.965Z,72.12
2017-03-05T08:55:57.516Z,71.93
2017-03-05T08:56:23.086Z,72.12
2017-03-05T08:56:48.650Z,71.98
2017-03-05T08:57:14.277Z,71.89
2017-03-05T08:57:39.872Z,71.89
2017-03-05T08:58:05.454Z,72.02
2017-03-05T08:58:31.028Z,72.02
2017-03-05T08:58:56.717Z,71.93
2017-03-05T08:59:22.288Z,71.98
2017-03-05T08:59:47.875Z,72.08
2017-03-05T09:00:13.452Z,71.55
2017-03-05T09:00:39.125Z,71.64
2017-03-05T09:01:04.706Z,72.12
2017-03-05T09:01:30.283Z,71.93
2017-03-05T09:01:55.913Z,71.89
2017-03-05T09:02:21.506Z,71.45
2017-03-05T09:02:47.093Z,71.55
2017-03-05T09:03:12.697Z,71.55
2017-03-05T09:03:38.368Z,71.55
2017-03-05T09:04:03.944Z,71.93
2017-03-05T09:04:29.530Z,71.93
2017-03-05T09:04:55.179Z,71.51
2017-03-05T09:05:22.073Z,72.12
2017-03-05T09:05:46.310Z,71.51
2017-03-05T09:06:11.928Z,71.73
2017-03-05T09:06:37.506Z,71.83
2017-03-05T09:07:03.069Z,71.93
2017-03-05T09:07:28.781Z,71.64
2017-03-05T09:07:54.350Z,71.61
2017-03-05T09:08:19.913Z,71.7
2017-03-05T09:08:45.553Z,71.83
2017-03-05T09:09:11.140Z,71.73
2017-03-05T09:09:36.704Z,71.73
2017-03-05T09:10:02.256Z,71.8
2017-03-05T09:10:28.482Z,71.61
2017-03-05T09:10:54.725Z,71.55
2017-03-05T09:11:20.298Z,71.51
2017-03-05T09:11:45.981Z,71.61
2017-03-05T09:12:11.535Z,71.31
2017-03-05T09:12:37.078Z,71.45
2017-03-05T09:13:02.651Z,71.45
2017-03-05T09:13:28.247Z,71.35
2017-03-05T09:13:53.812Z,71.35
2017-03-05T09:14:19.380Z,71.31
2017-03-05T09:14:44.936Z,71.45
2017-03-05T09:15:10.561Z,71.35
2017-03-05T09:15:36.146Z,71.35
2017-03-05T09:16:01.746Z,71.41
2017-03-05T09:16:27.963Z,71.35
2017-03-05T09:16:53.853Z,71.45
2017-03-05T09:17:19.453Z,71.31
2017-03-05T09:17:45.046Z,71.93
2017-03-05T09:18:10.574Z,71.64
2017-03-05T09:18:37.083Z,71.55
2017-03-05T09:19:01.913Z,71.51
2017-03-05T09:19:27.525Z,71.55
2017-03-05T09:19:53.146Z,71.55
2017-03-05T09:20:18.763Z,71.55
2017-03-05T09:20:44.349Z,71.51
2017-03-05T09:21:09.904Z,71.31
2017-03-05T09:21:35.504Z,71.35
2017-03-05T09:22:01.160Z,71.35
2017-03-05T09:22:26.732Z,71.41
2017-03-05T09:22:52.289Z,71.35
2017-03-05T09:23:17.876Z,71.51
2017-03-05T09:23:43.515Z,71.41
2017-03-05T09:24:09.102Z,71.31
2017-03-05T09:24:34.804Z,71.31
2017-03-05T09:25:00.399Z,71.31
2017-03-05T09:25:25.983Z,71.41
2017-03-05T09:25:51.568Z,71.55
2017-03-05T09:26:18.085Z,71.51
2017-03-05T09:26:42.686Z,71.41
2017-03-05T09:27:08.263Z,71.22
2017-03-05T09:27:33.842Z,71.45
2017-03-05T09:27:59.460Z,71.31
2017-03-05T09:28:25.771Z,71.31
2017-03-05T09:28:51.323Z,71.41
2017-03-05T09:29:16.872Z,71.31
2017-03-05T09:29:42.430Z,71.31
2017-03-05T09:30:08.001Z,71.35
2017-03-05T09:30:33.581Z,71.35
2017-03-05T09:30:59.144Z,71.41
2017-03-05T09:31:24.730Z,71.41
2017-03-05T09:31:50.285Z,71.31
2017-03-05T09:32:16.161Z,71.41
2017-03-05T09:32:41.722Z,71.41
2017-03-05T09:33:07.280Z,71.31
2017-03-05T09:33:32.833Z,71.55
2017-03-05T09:33:58.414Z,71.31
2017-03-05T09:34:24.075Z,71.22
2017-03-05T09:34:50.753Z,71.31
2017-03-05T09:35:16.338Z,71.25
2017-03-05T09:35:41.894Z,71.35
2017-03-05T09:36:07.560Z,71.31
2017-03-05T09:36:33.125Z,71.31
2017-03-05T09:36:58.671Z,71.31
2017-03-05T09:37:24.273Z,71.31
2017-03-05T09:37:49.877Z,71.45
2017-03-05T09:38:15.453Z,71.41
2017-03-05T09:38:41.003Z,71.31
2017-03-05T09:39:07.596Z,71.51
2017-03-05T09:39:33.211Z,71.41
2017-03-05T09:39:58.792Z,71.55
2017-03-05T09:40:24.454Z,71.31
2017-03-05T09:40:50.030Z,71.31
2017-03-05T09:41:15.587Z,71.41
2017-03-05T09:41:41.155Z,71.41
2017-03-05T09:42:06.741Z,71.31
2017-03-05T09:42:32.309Z,71.51
2017-03-05T09:42:57.845Z,71.51
2017-03-05T09:43:23.452Z,71.31
2017-03-05T09:43:49.069Z,71.31
2017-03-05T09:44:14.669Z,71.31
2017-03-05T09:44:40.234Z,71.22
2017-03-05T09:45:05.835Z,71.31
2017-03-05T09:45:31.418Z,71.51
2017-03-05T09:45:56.999Z,71.7
2017-03-05T09:46:22.621Z,71.8
2017-03-05T09:46:48.209Z,71.51
2017-03-05T09:47:13.774Z,72.08
2017-03-05T09:47:39.348Z,71.98
2017-03-05T09:48:04.973Z,71.8
2017-03-05T09:48:30.584Z,71.8
2017-03-05T09:48:56.151Z,71.89
2017-03-05T09:49:21.896Z,71.98
2017-03-05T09:49:47.454Z,71.7
2017-03-05T09:50:13.002Z,71.98
2017-03-05T09:50:38.573Z,71.89
2017-03-05T09:51:04.182Z,71.89
2017-03-05T09:51:29.735Z,71.8
2017-03-05T09:51:55.279Z,71.89
2017-03-05T09:52:20.845Z,71.98
2017-03-05T09:52:46.403Z,72.12
2017-03-05T09:53:11.963Z,71.89
2017-03-05T09:53:37.521Z,71.89
2017-03-05T09:54:03.600Z,72.08
2017-03-05T09:54:28.781Z,71.98
2017-03-05T09:54:54.396Z,71.8
2017-03-05T09:55:19.954Z,71.89
2017-03-05T09:55:45.534Z,71.89
2017-03-05T09:56:11.977Z,71.7
2017-03-05T09:56:37.569Z,71.8
2017-03-05T09:57:03.141Z,71.61
2017-03-05T09:57:28.780Z,71.61
2017-03-05T09:57:54.363Z,71.41
2017-03-05T09:58:19.938Z,71.41
2017-03-05T09:58:45.542Z,71.41
2017-03-05T09:59:11.179Z,71.41
2017-03-05T09:59:36.738Z,71.31
2017-03-05T10:00:02.311Z,71.51
2017-03-05T10:00:27.875Z,71.31
2017-03-05T10:00:53.566Z,71.31
2017-03-05T10:01:19.226Z,71.31
2017-03-05T10:01:44.799Z,71.31
2017-03-05T10:02:10.374Z,71.31
2017-03-05T10:02:35.922Z,71.31
2017-03-05T10:03:01.521Z,71.51
2017-03-05T10:03:27.202Z,71.41
2017-03-05T10:03:52.755Z,71.45
2017-03-05T10:04:18.416Z,71.51
2017-03-05T10:04:44.040Z,71.51
2017-03-05T10:05:09.631Z,71.41
2017-03-05T10:05:35.186Z,71.41
2017-03-05T10:06:00.817Z,71.61
2017-03-05T10:06:26.384Z,71.61
2017-03-05T10:06:51.987Z,71.51
2017-03-05T10:07:17.552Z,71.61
2017-03-05T10:07:43.223Z,71.51
2017-03-05T10:08:08.800Z,71.61
2017-03-05T10:08:34.421Z,71.64
2017-03-05T10:09:00.005Z,71.61
2017-03-05T10:09:25.549Z,71.41
2017-03-05T10:09:51.154Z,71.61
2017-03-05T10:10:16.696Z,71.61
2017-03-05T10:10:42.264Z,71.51
2017-03-05T10:11:07.812Z,71.61
2017-03-05T10:11:33.610Z,71.8
2017-03-05T10:11:59.168Z,71.41
2017-03-05T10:12:24.751Z,71.61
2017-03-05T10:12:50.397Z,71.31
2017-03-05T10:13:16.019Z,71.12
2017-03-05T10:13:41.566Z,71.89
2017-03-05T10:14:07.134Z,71.8
2017-03-05T10:14:32.698Z,71.12
2017-03-05T10:14:58.338Z,71.31
2017-03-05T10:15:23.928Z,71.12
2017-03-05T10:15:49.504Z,71.31
2017-03-05T10:16:15.091Z,71.03
2017-03-05T10:16:40.678Z,71.22
2017-03-05T10:17:06.239Z,71.03
2017-03-05T10:17:31.804Z,71.12
2017-03-05T10:17:57.462Z,71.03
2017-03-05T10:18:23.039Z,71.03
2017-03-05T10:18:48.806Z,71.22
2017-03-05T10:19:14.387Z,71.12
2017-03-05T10:19:39.963Z,71.03
2017-03-05T10:20:06.119Z,70.93
2017-03-05T10:20:31.715Z,71.03
2017-03-05T10:20:57.273Z,70.93
2017-03-05T10:21:22.851Z,71.03
2017-03-05T10:21:48.407Z,71.03
2017-03-05T10:22:13.965Z,70.93
2017-03-05T10:22:39.564Z,71.06
2017-03-05T10:23:05.159Z,70.93
2017-03-05T10:23:30.747Z,71.03
2017-03-05T10:23:56.313Z,71.03
2017-03-05T10:24:21.890Z,70.93
2017-03-05T10:24:47.524Z,70.93
2017-03-05T10:25:13.102Z,70.93
2017-03-05T10:25:39.271Z,71.03
2017-03-05T10:26:04.871Z,71.03
2017-03-05T10:26:30.453Z,71.03
2017-03-05T10:26:56.018Z,71.12
2017-03-05T10:27:21.806Z,71.12
2017-03-05T10:27:47.390Z,70.93
2017-03-05T10:28:13.058Z,71.12
2017-03-05T10:28:38.635Z,71.03
2017-03-05T10:29:04.186Z,71.03
2017-03-05T10:29:29.747Z,71.31
2017-03-05T10:29:56.194Z,71.03
2017-03-05T10:30:21.784Z,71.12
2017-03-05T10:30:47.416Z,71.03
2017-03-05T10:31:13.053Z,71.12